createdAt,value
2022-09-24T00:00:07.699Z,88.89
2022-09-24T00:01:07.712Z,88.89
2022-09-24T00:02:07.732Z,88.89
2022-09-24T00:03:07.751Z,89.09
2022-09-24T00:04:07.851Z,89.00
2022-09-24T00:05:07.676Z,89.00
2022-09-24T00:06:07.641Z,89.00
2022-09-24T00:07:07.629Z,89.09
2022-09-24T00:08:07.630Z,89.09
2022-09-24T00:09:07.659Z,89.09
2022-09-24T00:10:07.590Z,89.20
2022-09-24T00:11:07.579Z,89.20
2022-09-24T00:12:07.589Z,89.30
2022-09-24T00:13:07.566Z,89.30
2022-09-24T00:14:07.711Z,89.30
2022-09-24T00:15:07.541Z,89.30
2022-09-24T00:16:07.584Z,89.40
2022-09-24T00:17:07.511Z,89.54
2022-09-24T00:18:07.486Z,89.44
2022-09-24T00:19:07.491Z,89.54
2022-09-24T00:20:07.476Z,89.54
2022-09-24T00:21:07.451Z,89.64
2022-09-24T00:22:07.436Z,89.64
2022-09-24T00:23:07.432Z,89.64
2022-09-24T00:24:07.504Z,89.64
2022-09-24T00:25:07.400Z,89.75
2022-09-24T00:26:07.379Z,89.75
2022-09-24T00:27:07.369Z,89.85
2022-09-24T00:28:07.413Z,89.85
2022-09-24T00:29:07.370Z,89.85
2022-09-24T00:30:07.328Z,89.95
2022-09-24T00:31:07.468Z,90.20
2022-09-24T00:32:07.444Z,90.20
2022-09-24T00:33:07.304Z,90.20
2022-09-24T00:34:07.394Z,90.30
2022-09-24T00:35:07.265Z,90.30
2022-09-24T00:36:07.271Z,90.40
2022-09-24T00:37:07.259Z,90.50
2022-09-24T00:38:07.256Z,90.70
2022-09-24T00:39:07.213Z,90.70
2022-09-24T00:40:07.210Z,90.81
2022-09-24T00:41:07.195Z,90.81
2022-09-24T00:42:07.178Z,90.81
2022-09-24T00:43:07.155Z,90.81
2022-09-24T00:44:07.235Z,90.81
2022-09-24T00:45:07.216Z,90.81
2022-09-24T00:46:07.126Z,90.81
2022-09-24T00:47:07.168Z,90.81
2022-09-24T00:48:07.095Z,90.86
2022-09-24T00:49:07.112Z,90.86
2022-09-24T00:50:07.078Z,90.97
2022-09-24T00:51:07.061Z,90.97
2022-09-24T00:52:07.050Z,91.07
2022-09-24T00:53:07.027Z,91.07
2022-09-24T00:54:07.059Z,91.07
2022-09-24T00:55:07.001Z,90.97
2022-09-24T00:56:06.983Z,90.86
2022-09-24T00:57:06.977Z,90.86
2022-09-24T00:58:06.964Z,90.86
2022-09-24T00:59:06.981Z,90.77
2022-09-24T01:00:06.935Z,90.66
2022-09-24T01:01:06.951Z,90.66
2022-09-24T01:02:06.969Z,90.77
2022-09-24T01:03:06.922Z,90.77
2022-09-24T01:04:06.935Z,90.77
2022-09-24T01:05:06.872Z,90.66
2022-09-24T01:06:06.876Z,90.56
2022-09-24T01:07:06.832Z,90.56
2022-09-24T01:08:06.850Z,90.56
2022-09-24T01:09:06.830Z,90.56
2022-09-24T01:10:06.814Z,90.56
2022-09-24T01:11:06.782Z,90.56
2022-09-24T01:12:06.785Z,90.56
2022-09-24T01:13:06.762Z,90.46
2022-09-24T01:14:06.830Z,90.56
2022-09-24T01:15:06.756Z,90.62
2022-09-24T01:16:06.758Z,90.16
2022-09-24T01:17:06.718Z,89.81
2022-09-24T01:18:06.713Z,89.61
2022-09-24T01:19:06.694Z,89.61
2022-09-24T01:20:06.705Z,89.81
2022-09-24T01:21:06.675Z,90.01
2022-09-24T01:22:06.644Z,90.11
2022-09-24T01:23:06.648Z,90.22
2022-09-24T01:24:06.684Z,90.31
2022-09-24T01:25:06.671Z,90.31
2022-09-24T01:26:06.583Z,90.31
2022-09-24T01:27:06.589Z,90.25
2022-09-24T01:28:06.583Z,90.25
2022-09-24T01:29:06.561Z,90.36
2022-09-24T01:30:06.554Z,90.46
2022-09-24T01:31:06.599Z,90.56
2022-09-24T01:32:06.526Z,90.66
2022-09-24T01:33:06.505Z,90.77
2022-09-24T01:34:06.552Z,90.86
2022-09-24T01:35:06.484Z,90.86
2022-09-24T01:36:06.459Z,90.97
2022-09-24T01:37:06.460Z,91.07
2022-09-24T01:38:06.458Z,91.17
2022-09-24T01:39:06.430Z,91.27
2022-09-24T01:40:06.476Z,91.27
2022-09-24T01:41:06.402Z,91.38
2022-09-24T01:42:06.390Z,91.38
2022-09-24T01:43:06.381Z,91.38
2022-09-24T01:44:06.428Z,91.38
2022-09-24T01:45:06.374Z,91.27
2022-09-24T01:46:06.435Z,91.27
2022-09-24T01:47:06.338Z,91.27
2022-09-24T01:48:06.322Z,91.17
2022-09-24T01:49:06.309Z,91.17
2022-09-24T01:50:06.321Z,91.17
2022-09-24T01:51:06.287Z,91.17
2022-09-24T01:52:06.262Z,91.17
2022-09-24T01:53:06.227Z,91.27
2022-09-24T01:54:06.235Z,91.27
2022-09-24T01:55:06.209Z,91.38
2022-09-24T01:56:06.207Z,91.48
2022-09-24T01:57:06.176Z,91.48
2022-09-24T01:58:06.190Z,91.58
2022-09-24T01:59:06.157Z,91.58
2022-09-24T02:00:06.159Z,91.68
2022-09-24T02:01:06.204Z,91.78
2022-09-24T02:02:06.186Z,91.78
2022-09-24T02:03:06.116Z,91.88
2022-09-24T02:04:06.106Z,91.99
2022-09-24T02:05:06.088Z,91.99
2022-09-24T02:06:06.078Z,91.99
2022-09-24T02:07:06.060Z,91.99
2022-09-24T02:08:06.060Z,91.99
2022-09-24T02:09:06.030Z,91.99
2022-09-24T02:10:06.020Z,91.88
2022-09-24T02:11:06.029Z,91.99
2022-09-24T02:12:05.989Z,92.09
2022-09-24T02:13:05.978Z,92.19
2022-09-24T02:14:05.965Z,92.19
2022-09-24T02:15:05.954Z,92.09
2022-09-24T02:16:06.066Z,92.19
2022-09-24T02:17:05.916Z,92.19
2022-09-24T02:18:05.936Z,92.29
2022-09-24T02:19:05.904Z,92.29
2022-09-24T02:20:05.887Z,92.29
2022-09-24T02:21:05.890Z,92.29
2022-09-24T02:22:05.860Z,92.29
2022-09-24T02:23:05.834Z,92.29
2022-09-24T02:24:05.836Z,92.29
2022-09-24T02:25:05.833Z,92.19
2022-09-24T02:26:05.839Z,92.29
2022-09-24T02:27:05.808Z,92.29
2022-09-24T02:28:05.792Z,92.29
2022-09-24T02:29:05.780Z,92.29
2022-09-24T02:30:05.767Z,92.40
2022-09-24T02:31:05.833Z,92.40
2022-09-24T02:32:05.753Z,92.49
2022-09-24T02:33:05.705Z,92.49
2022-09-24T02:34:05.711Z,92.49
2022-09-24T02:35:05.684Z,92.60
2022-09-24T02:36:05.673Z,92.60
2022-09-24T02:37:05.716Z,92.60
2022-09-24T02:38:06.374Z,92.60
2022-09-24T02:39:05.645Z,92.60
2022-09-24T02:40:05.687Z,92.60
2022-09-24T02:41:05.614Z,92.60
2022-09-24T02:42:05.594Z,92.60
2022-09-24T02:43:05.603Z,92.60
2022-09-24T02:44:05.640Z,92.49
2022-09-24T02:45:05.553Z,92.49
2022-09-24T02:46:05.607Z,92.40
2022-09-24T02:47:05.553Z,92.49
2022-09-24T02:48:05.541Z,92.49
2022-09-24T02:49:05.510Z,92.49
2022-09-24T02:50:05.488Z,92.49
2022-09-24T02:51:05.495Z,92.60
2022-09-24T02:52:05.463Z,92.60
2022-09-24T02:53:15.290Z,92.60
2022-09-24T02:54:05.468Z,92.70
2022-09-24T02:55:05.433Z,92.70
2022-09-24T02:56:06.162Z,92.80
2022-09-24T02:57:05.405Z,92.94
2022-09-24T02:58:05.415Z,92.94
2022-09-24T02:59:05.385Z,93.05
2022-09-24T03:00:05.362Z,93.05
2022-09-24T03:01:05.372Z,93.05
2022-09-24T03:02:05.502Z,93.15
2022-09-24T03:03:05.350Z,93.15
2022-09-24T03:04:05.447Z,93.25
2022-09-24T03:05:05.296Z,93.25
2022-09-24T03:06:05.286Z,93.35
2022-09-24T03:07:05.274Z,93.35
2022-09-24T03:08:05.274Z,93.35
2022-09-24T03:09:05.262Z,93.45
2022-09-24T03:10:05.221Z,93.45
2022-09-24T03:11:05.273Z,93.55
2022-09-24T03:12:05.203Z,93.55
2022-09-24T03:13:05.183Z,93.55
2022-09-24T03:14:05.274Z,93.66
2022-09-24T03:15:05.186Z,93.55
2022-09-24T03:16:05.178Z,93.66
2022-09-24T03:17:05.143Z,93.66
2022-09-24T03:18:05.131Z,93.76
2022-09-24T03:19:05.116Z,93.66
2022-09-24T03:20:05.117Z,93.66
2022-09-24T03:21:05.081Z,93.62
2022-09-24T03:22:05.080Z,93.62
2022-09-24T03:23:05.061Z,93.51
2022-09-24T03:24:05.085Z,93.41
2022-09-24T03:25:05.020Z,93.41
2022-09-24T03:26:05.055Z,93.31
2022-09-24T03:27:04.998Z,93.21
2022-09-24T03:28:05.033Z,93.10
2022-09-24T03:29:04.989Z,93.01
2022-09-24T03:30:04.972Z,93.01
2022-09-24T03:31:05.101Z,93.01
2022-09-24T03:32:04.953Z,93.01
2022-09-24T03:33:04.922Z,93.01
2022-09-24T03:34:04.984Z,93.10
2022-09-24T03:35:04.914Z,93.10
2022-09-24T03:36:04.910Z,93.21
2022-09-24T03:37:04.882Z,93.21
2022-09-24T03:38:04.915Z,93.21
2022-09-24T03:39:04.852Z,93.31
2022-09-24T03:40:04.840Z,93.31
2022-09-24T03:41:04.844Z,93.31
2022-09-24T03:42:04.806Z,93.31
2022-09-24T03:43:04.785Z,93.21
2022-09-24T03:44:04.943Z,93.01
2022-09-24T03:45:04.779Z,92.90
2022-09-24T03:46:04.759Z,92.80
2022-09-24T03:47:04.761Z,92.70
2022-09-24T03:48:04.732Z,92.60
2022-09-24T03:49:04.730Z,92.70
2022-09-24T03:50:04.706Z,92.60
2022-09-24T03:51:04.695Z,92.70
2022-09-24T03:52:04.711Z,92.70
2022-09-24T03:53:04.673Z,92.70
2022-09-24T03:54:04.815Z,92.80
2022-09-24T03:55:04.644Z,92.90
2022-09-24T03:56:04.618Z,92.90
2022-09-24T03:57:04.604Z,93.01
2022-09-24T03:58:04.616Z,93.10
2022-09-24T03:59:04.588Z,93.10
2022-09-24T04:00:04.574Z,93.10
2022-09-24T04:01:04.572Z,93.21
2022-09-24T04:02:04.584Z,93.31
2022-09-24T04:03:04.615Z,93.31
2022-09-24T04:04:04.531Z,93.31
2022-09-24T04:05:04.495Z,93.31
2022-09-24T04:06:04.494Z,93.31
2022-09-24T04:07:04.473Z,93.21
2022-09-24T04:08:04.470Z,93.21
2022-09-24T04:09:04.464Z,93.10
2022-09-24T04:10:04.443Z,93.21
2022-09-24T04:11:04.423Z,93.10
2022-09-24T04:12:04.414Z,93.10
2022-09-24T04:13:04.407Z,93.10
2022-09-24T04:14:04.398Z,93.10
2022-09-24T04:15:04.377Z,93.10
2022-09-24T04:16:04.417Z,93.21
2022-09-24T04:17:04.342Z,93.21
2022-09-24T04:18:04.333Z,93.21
2022-09-24T04:19:04.346Z,93.10
2022-09-24T04:20:04.303Z,93.01
2022-09-24T04:21:04.282Z,93.01
2022-09-24T04:22:04.285Z,93.10
2022-09-24T04:23:04.274Z,93.21
2022-09-24T04:24:04.308Z,93.21
2022-09-24T04:25:04.268Z,93.21
2022-09-24T04:26:04.243Z,93.10
2022-09-24T04:27:04.214Z,93.21
2022-09-24T04:28:04.235Z,93.21
2022-09-24T04:29:04.203Z,93.41
2022-09-24T04:30:04.233Z,93.41
2022-09-24T04:31:04.237Z,93.41
2022-09-24T04:32:04.152Z,93.51
2022-09-24T04:33:04.144Z,93.62
2022-09-24T04:34:04.134Z,93.62
2022-09-24T04:35:07.487Z,93.62
2022-09-24T04:36:04.105Z,93.71
2022-09-24T04:37:04.080Z,93.71
2022-09-24T04:38:04.079Z,93.71
2022-09-24T04:39:04.076Z,93.82
2022-09-24T04:40:04.074Z,93.82
2022-09-24T04:41:04.046Z,93.71
2022-09-24T04:42:04.019Z,93.71
2022-09-24T04:43:04.004Z,93.82
2022-09-24T04:44:04.004Z,93.82
2022-09-24T04:45:04.015Z,93.92
2022-09-24T04:46:04.012Z,93.92
2022-09-24T04:47:03.969Z,94.02
2022-09-24T04:48:03.975Z,94.02
2022-09-24T04:49:03.934Z,94.02
2022-09-24T04:50:03.907Z,94.02
2022-09-24T04:51:03.910Z,93.82
2022-09-24T04:52:03.891Z,93.71
2022-09-24T04:53:03.885Z,93.62
2022-09-24T04:54:03.861Z,93.62
2022-09-24T04:55:03.860Z,93.71
2022-09-24T04:56:03.839Z,93.71
2022-09-24T04:57:03.833Z,93.66
2022-09-24T04:58:03.803Z,93.76
2022-09-24T04:59:03.822Z,93.76
2022-09-24T05:00:03.778Z,93.76
2022-09-24T05:01:03.795Z,93.66
2022-09-24T05:02:09.196Z,93.66
2022-09-24T05:03:04.892Z,93.76
2022-09-24T05:04:03.729Z,93.76
2022-09-24T05:05:03.717Z,93.76
2022-09-24T05:06:03.731Z,93.76
2022-09-24T05:07:03.702Z,93.86
2022-09-24T05:08:03.669Z,93.86
2022-09-24T05:09:03.670Z,93.86
2022-09-24T05:10:03.648Z,93.96
2022-09-24T05:11:03.651Z,93.96
2022-09-24T05:12:03.649Z,93.86
2022-09-24T05:13:03.626Z,93.96
2022-09-24T05:14:03.612Z,93.96
2022-09-24T05:15:03.588Z,94.07
2022-09-24T05:16:03.733Z,94.07
2022-09-24T05:17:03.582Z,94.07
2022-09-24T05:18:03.536Z,93.96
2022-09-24T05:19:03.526Z,93.96
2022-09-24T05:20:03.528Z,93.96
2022-09-24T05:21:03.504Z,93.96
2022-09-24T05:22:03.499Z,93.96
2022-09-24T05:23:03.474Z,93.96
2022-09-24T05:24:03.466Z,93.96
2022-09-24T05:25:03.493Z,93.96
2022-09-24T05:26:03.434Z,93.96
2022-09-24T05:27:03.433Z,93.96
2022-09-24T05:28:03.449Z,93.96
2022-09-24T05:29:03.409Z,93.96
2022-09-24T05:30:03.398Z,93.86
2022-09-24T05:31:03.455Z,93.86
2022-09-24T05:32:03.384Z,93.86
2022-09-24T05:33:03.383Z,93.86
2022-09-24T05:34:03.338Z,93.86
2022-09-24T05:35:03.357Z,93.86
2022-09-24T05:36:03.325Z,93.86
2022-09-24T05:37:03.310Z,93.76
2022-09-24T05:38:03.309Z,93.66
2022-09-24T05:39:03.299Z,93.66
2022-09-24T05:40:03.265Z,93.66
2022-09-24T05:41:03.292Z,93.66
2022-09-24T05:42:03.223Z,93.66
2022-09-24T05:43:03.215Z,93.66
2022-09-24T05:44:03.227Z,93.55
2022-09-24T05:45:03.208Z,93.55
2022-09-24T05:46:03.265Z,93.55
2022-09-24T05:47:03.184Z,93.55
2022-09-24T05:48:03.150Z,93.66
2022-09-24T05:49:03.166Z,93.66
2022-09-24T05:50:03.149Z,93.66
2022-09-24T05:51:03.126Z,93.55
2022-09-24T05:52:03.114Z,93.66
2022-09-24T05:53:03.086Z,93.66
2022-09-24T05:54:03.097Z,93.55
2022-09-24T05:55:03.062Z,93.55
2022-09-24T05:56:03.055Z,93.55
2022-09-24T05:57:03.043Z,93.66
2022-09-24T05:58:03.011Z,93.66
2022-09-24T05:59:03.045Z,93.55
2022-09-24T06:00:02.982Z,93.55
2022-09-24T06:01:02.981Z,93.55
2022-09-24T06:02:03.017Z,93.66
2022-09-24T06:03:03.017Z,93.55
2022-09-24T06:04:08.404Z,93.55
2022-09-24T06:05:03.932Z,93.66
2022-09-24T06:06:02.924Z,93.55
2022-09-24T06:07:02.900Z,93.66
2022-09-24T06:08:02.893Z,93.55
2022-09-24T06:09:02.896Z,93.55
2022-09-24T06:10:02.879Z,93.55
2022-09-24T06:11:02.869Z,93.55
2022-09-24T06:12:02.853Z,93.45
2022-09-24T06:13:02.835Z,93.35
2022-09-24T06:14:02.800Z,93.35
2022-09-24T06:15:02.827Z,93.35
2022-09-24T06:16:02.884Z,93.35
2022-09-24T06:17:02.767Z,93.35
2022-09-24T06:18:02.763Z,93.25
2022-09-24T06:19:02.866Z,93.25
2022-09-24T06:20:02.741Z,93.05
2022-09-24T06:21:02.741Z,92.94
2022-09-24T06:22:02.699Z,92.84
2022-09-24T06:23:02.710Z,92.94
2022-09-24T06:24:02.692Z,92.94
2022-09-24T06:25:02.680Z,92.94
2022-09-24T06:26:02.671Z,93.05
2022-09-24T06:27:02.653Z,93.05
2022-09-24T06:28:02.652Z,93.15
2022-09-24T06:29:05.147Z,92.94
2022-09-24T06:30:02.609Z,92.94
2022-09-24T06:31:02.737Z,92.90
2022-09-24T06:32:02.586Z,92.90
2022-09-24T06:33:02.569Z,92.90
2022-09-24T06:34:02.545Z,93.01
2022-09-24T06:35:02.547Z,93.01
2022-09-24T06:36:02.530Z,92.90
2022-09-24T06:37:02.522Z,92.90
2022-09-24T06:38:02.488Z,92.80
2022-09-24T06:39:02.516Z,92.70
2022-09-24T06:40:02.464Z,92.60
2022-09-24T06:41:02.587Z,92.49
2022-09-24T06:42:02.449Z,92.29
2022-09-24T06:43:02.439Z,92.19
2022-09-24T06:44:02.427Z,92.09
2022-09-24T06:45:02.407Z,92.09
2022-09-24T06:46:02.396Z,92.19
2022-09-24T06:47:02.534Z,92.19
2022-09-24T06:48:02.385Z,92.19
2022-09-24T06:49:02.353Z,92.09
2022-09-24T06:50:02.347Z,91.88
2022-09-24T06:51:02.332Z,91.88
2022-09-24T06:52:02.328Z,91.88
2022-09-24T06:53:02.294Z,91.84
2022-09-24T06:54:02.275Z,91.84
2022-09-24T06:55:02.271Z,91.84
2022-09-24T06:56:02.272Z,91.84
2022-09-24T06:57:02.261Z,91.84
2022-09-24T06:58:02.232Z,91.84
2022-09-24T06:59:02.400Z,91.84
2022-09-24T07:00:02.206Z,91.53
2022-09-24T07:01:02.307Z,91.33
2022-09-24T07:02:02.294Z,91.23
2022-09-24T07:03:02.174Z,91.13
2022-09-24T07:04:02.144Z,91.03
2022-09-24T07:05:02.144Z,91.03
2022-09-24T07:06:02.139Z,91.13
2022-09-24T07:07:02.134Z,91.13
2022-09-24T07:08:02.141Z,91.13
2022-09-24T07:09:02.166Z,91.23
2022-09-24T07:10:02.086Z,91.33
2022-09-24T07:11:02.076Z,91.43
2022-09-24T07:12:02.065Z,91.60
2022-09-24T07:13:02.051Z,91.49
2022-09-24T07:14:02.046Z,91.60
2022-09-24T07:15:02.009Z,91.60
2022-09-24T07:16:02.159Z,91.49
2022-09-24T07:17:01.995Z,91.49
2022-09-24T07:18:02.006Z,91.69
2022-09-24T07:19:02.078Z,91.80
2022-09-24T07:20:01.942Z,91.90
2022-09-24T07:21:01.942Z,92.10
2022-09-24T07:22:01.913Z,92.10
2022-09-24T07:23:01.901Z,92.00
2022-09-24T07:24:01.902Z,92.10
2022-09-24T07:25:01.893Z,92.21
2022-09-24T07:26:01.884Z,92.30
2022-09-24T07:27:01.857Z,92.51
2022-09-24T07:28:01.845Z,92.30
2022-09-24T07:29:01.879Z,92.21
2022-09-24T07:30:01.803Z,91.90
2022-09-24T07:31:01.858Z,91.75
2022-09-24T07:32:01.790Z,91.65
2022-09-24T07:33:01.810Z,91.65
2022-09-24T07:34:01.901Z,91.75
2022-09-24T07:35:01.762Z,91.75
2022-09-24T07:36:01.731Z,91.75
2022-09-24T07:37:01.739Z,91.86
2022-09-24T07:38:01.720Z,92.06
2022-09-24T07:39:01.731Z,92.06
2022-09-24T07:40:01.723Z,92.16
2022-09-24T07:41:01.801Z,92.22
2022-09-24T07:42:01.663Z,92.32
2022-09-24T07:43:01.663Z,92.02
2022-09-24T07:44:01.662Z,91.82
2022-09-24T07:45:01.643Z,91.41
2022-09-24T07:46:01.617Z,90.90
2022-09-24T07:47:01.708Z,90.59
2022-09-24T07:48:01.591Z,90.70
2022-09-24T07:49:01.583Z,90.70
2022-09-24T07:50:01.580Z,90.59
2022-09-24T07:51:01.544Z,90.80
2022-09-24T07:52:01.529Z,90.80
2022-09-24T07:53:01.507Z,90.75
2022-09-24T07:54:01.577Z,90.86
2022-09-24T07:55:01.521Z,90.55
2022-09-24T07:56:01.466Z,90.25
2022-09-24T07:57:01.541Z,89.94
2022-09-24T07:58:01.454Z,89.74
2022-09-24T07:59:01.440Z,89.23
2022-09-24T08:00:01.435Z,89.13
2022-09-24T08:01:01.432Z,88.82
2022-09-24T08:02:01.454Z,89.13
2022-09-24T08:03:01.399Z,89.33
2022-09-24T08:04:01.554Z,89.23
2022-09-24T08:05:01.353Z,89.54
2022-09-24T08:06:01.354Z,89.64
2022-09-24T08:07:01.386Z,89.54
2022-09-24T08:08:01.319Z,89.64
2022-09-24T08:09:01.318Z,89.64
2022-09-24T08:10:01.301Z,89.64
2022-09-24T08:11:01.301Z,89.54
2022-09-24T08:12:01.258Z,89.33
2022-09-24T08:13:01.269Z,89.33
2022-09-24T08:14:01.258Z,89.54
2022-09-24T08:15:01.241Z,89.13
2022-09-24T08:16:01.263Z,88.73
2022-09-24T08:17:01.211Z,88.52
2022-09-24T08:18:01.175Z,88.73
2022-09-24T08:19:01.191Z,88.73
2022-09-24T08:20:01.164Z,88.68
2022-09-24T08:21:01.329Z,88.99
2022-09-24T08:22:01.135Z,88.89
2022-09-24T08:23:01.130Z,88.89
2022-09-24T08:24:01.249Z,88.78
2022-09-24T08:25:01.092Z,88.28
2022-09-24T08:26:01.100Z,88.21
2022-09-24T08:27:01.187Z,88.42
2022-09-24T08:28:01.065Z,87.92
2022-09-24T08:29:01.059Z,87.30
2022-09-24T08:30:01.078Z,87.40
2022-09-24T08:31:01.082Z,87.61
2022-09-24T08:32:01.100Z,87.92
2022-09-24T08:33:01.016Z,87.61
2022-09-24T08:34:01.053Z,87.92
2022-09-24T08:35:00.967Z,88.01
2022-09-24T08:36:00.957Z,88.32
2022-09-24T08:37:00.993Z,88.62
2022-09-24T08:38:00.961Z,88.93
2022-09-24T08:39:00.903Z,89.23
2022-09-24T08:40:00.897Z,89.39
2022-09-24T08:41:00.896Z,89.23
2022-09-24T08:42:00.901Z,89.13
2022-09-24T08:43:05.523Z,89.29
2022-09-24T08:44:01.899Z,89.50
2022-09-24T08:45:00.892Z,89.29
2022-09-24T08:46:00.870Z,88.89
2022-09-24T08:47:00.853Z,88.78
2022-09-24T08:48:00.804Z,88.89
2022-09-24T08:49:00.791Z,89.19
2022-09-24T08:50:00.764Z,89.39
2022-09-24T08:51:00.782Z,89.29
2022-09-24T08:52:00.732Z,89.13
2022-09-24T08:53:00.727Z,89.23
2022-09-24T08:54:00.726Z,88.42
2022-09-24T08:55:00.705Z,88.73
2022-09-24T08:56:00.682Z,89.13
2022-09-24T08:57:00.789Z,90.11
2022-09-24T08:58:00.892Z,90.61
2022-09-24T08:59:00.666Z,90.51
2022-09-24T09:00:00.621Z,90.31
2022-09-24T09:01:00.624Z,90.11
2022-09-24T09:02:00.694Z,90.00
2022-09-24T09:03:00.631Z,89.90
2022-09-24T09:04:00.609Z,89.90
2022-09-24T09:05:00.586Z,90.00
2022-09-24T09:06:00.554Z,90.11
2022-09-24T09:07:00.635Z,90.20
2022-09-24T09:08:00.554Z,90.20
2022-09-24T09:09:08.124Z,90.41
2022-09-24T09:10:01.514Z,90.71
2022-09-24T09:11:00.503Z,90.71
2022-09-24T09:12:00.495Z,90.92
2022-09-24T09:13:00.473Z,90.88
2022-09-24T09:14:00.549Z,91.08
2022-09-24T09:15:00.423Z,90.36
2022-09-24T09:16:00.486Z,90.26
2022-09-24T09:17:00.450Z,90.36
2022-09-24T09:18:00.442Z,90.47
2022-09-24T09:19:00.410Z,90.67
2022-09-24T09:20:00.403Z,90.26
2022-09-24T09:21:00.362Z,90.36
2022-09-24T09:22:00.352Z,90.57
2022-09-24T09:23:00.328Z,90.42
2022-09-24T09:25:03.730Z,90.62
2022-09-24T09:25:59.929Z,90.93
2022-09-24T09:26:58.899Z,90.73
2022-09-24T09:27:58.886Z,90.62
2022-09-24T09:28:58.855Z,90.42
2022-09-24T09:29:58.868Z,90.53
2022-09-24T09:30:59.188Z,90.32
2022-09-24T09:31:58.920Z,90.22
2022-09-24T09:32:58.819Z,90.22
2022-09-24T09:33:58.805Z,90.18
2022-09-24T09:34:58.774Z,89.61
2022-09-24T09:35:58.782Z,89.51
2022-09-24T09:36:58.754Z,89.67
2022-09-24T09:37:58.733Z,89.67
2022-09-24T09:38:58.747Z,89.67
2022-09-24T09:39:58.715Z,89.77
2022-09-24T09:40:58.966Z,89.37
2022-09-24T09:41:58.707Z,89.17
2022-09-24T09:42:58.690Z,89.17
2022-09-24T09:43:58.680Z,89.06
2022-09-24T09:44:58.689Z,88.76
2022-09-24T09:45:58.634Z,88.66
2022-09-24T09:46:58.666Z,88.42
2022-09-24T09:47:58.625Z,88.31
2022-09-24T09:48:58.593Z,87.71
2022-09-24T09:49:58.582Z,87.71
2022-09-24T09:50:58.571Z,87.71
2022-09-24T09:51:58.583Z,87.60
2022-09-24T09:52:58.552Z,87.60
2022-09-24T09:53:58.539Z,87.60
2022-09-24T09:54:58.521Z,87.10
2022-09-24T09:55:58.524Z,86.90
2022-09-24T09:56:58.505Z,87.30
2022-09-24T09:57:58.472Z,87.00
2022-09-24T09:58:58.480Z,87.00
2022-09-24T09:59:58.458Z,87.20
2022-09-24T10:00:58.441Z,87.51
2022-09-24T10:01:58.503Z,87.20
2022-09-24T10:02:58.534Z,86.69
2022-09-24T10:03:58.420Z,86.76
2022-09-24T10:04:58.384Z,87.05
2022-09-24T10:05:58.369Z,87.16
2022-09-24T10:06:58.384Z,86.85
2022-09-24T10:07:58.358Z,86.96
2022-09-24T10:08:58.331Z,87.66
2022-09-24T10:09:58.310Z,87.82
2022-09-24T10:10:58.307Z,88.23
2022-09-24T10:11:58.290Z,87.82
2022-09-24T10:12:58.292Z,87.02
2022-09-24T10:13:58.260Z,87.62
2022-09-24T10:14:58.264Z,87.48
2022-09-24T10:15:58.325Z,87.99
2022-09-24T10:16:58.245Z,87.88
2022-09-24T10:17:58.232Z,87.58
2022-09-24T10:18:58.215Z,87.38
2022-09-24T10:19:58.222Z,86.77
2022-09-24T10:20:58.183Z,87.08
2022-09-24T10:21:58.170Z,87.18
2022-09-24T10:22:58.182Z,86.37
2022-09-24T10:23:58.151Z,85.16
2022-09-24T10:24:58.142Z,84.75
2022-09-24T10:25:58.113Z,85.02
2022-09-24T10:26:58.117Z,84.61
2022-09-24T10:27:58.089Z,84.11
2022-09-24T10:28:58.081Z,84.51
2022-09-24T10:29:58.070Z,84.91
2022-09-24T10:30:58.145Z,85.02
2022-09-24T10:31:58.028Z,85.22
2022-09-24T10:32:58.038Z,84.81
2022-09-24T10:33:58.011Z,85.11
2022-09-24T10:34:58.011Z,84.61
2022-09-24T10:35:57.982Z,84.31
2022-09-24T10:36:57.967Z,84.31
2022-09-24T10:37:57.992Z,84.00
2022-09-24T10:38:57.962Z,84.71
2022-09-24T10:39:57.930Z,83.40
2022-09-24T10:40:57.981Z,83.70
2022-09-24T10:41:57.899Z,83.60
2022-09-24T10:42:57.898Z,83.80
2022-09-24T10:43:57.887Z,83.29
2022-09-24T10:44:57.872Z,84.00
2022-09-24T10:45:57.868Z,84.51
2022-09-24T10:46:57.935Z,84.81
2022-09-24T10:47:57.832Z,84.11
2022-09-24T10:48:57.844Z,84.81
2022-09-24T10:49:57.795Z,84.11
2022-09-24T10:50:57.776Z,83.29
2022-09-24T10:51:57.790Z,83.29
2022-09-24T10:52:57.778Z,83.70
2022-09-24T10:53:57.770Z,83.70
2022-09-24T10:54:57.749Z,83.76
2022-09-24T10:55:57.733Z,83.60
2022-09-24T10:56:57.741Z,83.96
2022-09-24T10:57:57.700Z,83.96
2022-09-24T10:58:57.695Z,84.17
2022-09-24T10:59:57.697Z,82.79
2022-09-24T11:00:57.646Z,82.45
2022-09-24T11:01:57.712Z,81.64
2022-09-24T11:02:57.668Z,81.57
2022-09-24T11:03:57.669Z,81.48
2022-09-24T11:04:57.688Z,82.28
2022-09-24T11:05:57.608Z,82.28
2022-09-24T11:06:57.638Z,81.98
2022-09-24T11:07:57.575Z,82.49
2022-09-24T11:08:57.568Z,82.18
2022-09-24T11:09:57.567Z,82.59
2022-09-24T11:10:57.529Z,82.69
2022-09-24T11:11:57.504Z,82.28
2022-09-24T11:12:57.496Z,82.49
2022-09-24T11:13:57.498Z,82.39
2022-09-24T11:14:57.496Z,82.59
2022-09-24T11:15:57.492Z,82.99
2022-09-24T11:16:57.460Z,82.39
2022-09-24T11:17:57.449Z,81.68
2022-09-24T11:18:57.414Z,80.97
2022-09-24T11:19:57.406Z,79.55
2022-09-24T11:20:57.414Z,79.75
2022-09-24T11:21:57.409Z,79.59
2022-09-24T11:22:57.363Z,79.19
2022-09-24T11:23:57.377Z,79.59
2022-09-24T11:24:57.359Z,80.00
2022-09-24T11:25:57.366Z,80.50
2022-09-24T11:26:57.326Z,80.60
2022-09-24T11:27:57.332Z,80.91
2022-09-24T11:28:57.296Z,81.71
2022-09-24T11:29:57.299Z,82.12
2022-09-24T11:30:57.385Z,82.12
2022-09-24T11:31:57.255Z,81.51
2022-09-24T11:32:57.255Z,81.21
2022-09-24T11:33:57.240Z,81.01
2022-09-24T11:34:57.226Z,80.40
2022-09-24T11:35:57.220Z,81.01
2022-09-24T11:36:57.195Z,81.21
2022-09-24T11:37:57.190Z,80.60
2022-09-24T11:38:57.152Z,80.97
2022-09-24T11:39:57.144Z,80.50
2022-09-24T11:40:57.236Z,78.99
2022-09-24T11:41:57.150Z,78.28
2022-09-24T11:42:57.131Z,78.08
2022-09-24T11:43:57.104Z,78.38
2022-09-24T11:44:57.111Z,78.58
2022-09-24T11:45:57.061Z,78.78
2022-09-24T11:46:57.076Z,79.55
2022-09-24T11:47:57.067Z,79.96
2022-09-24T11:48:57.065Z,79.96
2022-09-24T11:49:57.036Z,79.66
2022-09-24T11:50:57.013Z,79.75
2022-09-24T11:51:57.024Z,78.44
2022-09-24T11:52:56.971Z,78.75
2022-09-24T11:53:56.982Z,78.95
2022-09-24T11:54:56.963Z,79.86
2022-09-24T11:55:56.952Z,79.15
2022-09-24T11:56:56.947Z,78.64
2022-09-24T11:57:56.934Z,78.75
2022-09-24T11:58:56.912Z,79.05
2022-09-24T11:59:56.901Z,78.44
2022-09-24T12:00:56.879Z,78.64
2022-09-24T12:01:56.977Z,78.55
2022-09-24T12:02:56.984Z,78.61
2022-09-24T12:03:56.874Z,78.71
2022-09-24T12:04:56.835Z,79.52
2022-09-24T12:05:56.825Z,80.02
2022-09-24T12:06:56.844Z,80.12
2022-09-24T12:07:56.803Z,80.32
2022-09-24T12:08:56.801Z,80.02
2022-09-24T12:09:56.750Z,79.82
2022-09-24T12:10:56.741Z,80.12
2022-09-24T12:11:56.728Z,79.92
2022-09-24T12:12:56.747Z,79.82
2022-09-24T12:13:56.727Z,79.62
2022-09-24T12:14:56.698Z,79.01
2022-09-24T12:15:56.779Z,79.01
2022-09-24T12:16:56.693Z,78.88
2022-09-24T12:17:56.683Z,78.88
2022-09-24T12:18:56.681Z,78.67
2022-09-24T12:19:56.641Z,78.77
2022-09-24T12:20:56.608Z,78.37
2022-09-24T12:21:56.601Z,78.47
2022-09-24T12:22:56.612Z,78.77
2022-09-24T12:24:02.651Z,78.57
2022-09-24T12:24:57.561Z,78.97
2022-09-24T12:25:56.552Z,79.48
2022-09-24T12:26:56.536Z,78.88
2022-09-24T12:27:56.538Z,77.36
2022-09-24T12:28:56.521Z,76.69
2022-09-24T12:29:56.510Z,76.48
2022-09-24T12:30:56.558Z,76.95
2022-09-24T12:31:56.589Z,77.46
2022-09-24T12:32:56.494Z,78.17
2022-09-24T12:33:56.448Z,77.56
2022-09-24T12:34:56.434Z,76.95
2022-09-24T12:35:56.428Z,77.06
2022-09-24T12:36:57.493Z,76.95
2022-09-24T12:37:56.963Z,77.15
2022-09-24T12:38:56.400Z,75.13
2022-09-24T12:39:56.367Z,75.04
2022-09-24T12:40:56.397Z,75.24
2022-09-24T12:41:56.370Z,74.84
2022-09-24T12:42:56.349Z,75.54
2022-09-24T12:43:56.336Z,75.88
2022-09-24T12:44:56.309Z,75.48
2022-09-24T12:45:56.301Z,75.17
2022-09-24T12:46:56.379Z,75.57
2022-09-24T12:47:56.279Z,75.68
2022-09-24T12:48:56.279Z,75.78
2022-09-24T12:49:56.250Z,76.08
2022-09-24T12:50:56.218Z,76.39
2022-09-24T12:51:56.214Z,76.48
2022-09-24T12:52:56.219Z,76.69